Snapfinger, Georgia
Current Conditions -  °F | °C
As of 8:53 PM on Thursday 18 Dec 2014 (Local Time) from KPDK Reporting Station
Clear Clear  
Wind Chill: 38°   Ceiling: Unl
Heat Index: 42°   Visibility: 10mi
Dew Point: 32°   Wind: 6mph
Humidity: 67%   Direction: 290°WNW
Pressure: 30.14"   Gusts: NA
Location:  33.7251°N, 84.205°W
Report Text: KPDK 190153Z 29005KT 10SM CLR 06/00 A3014 RMK AO2 SLP217 T00560000
Loading
Personal Weather Stations






























Interactive Weather Map New forecast layout! Learn more

10-Day Weather Forecast

Advertisements
Track Severe Weather on mobile